createdAt,value
2022-10-22T00:01:34.649Z,4.55
2022-10-22T00:04:02.339Z,4.60
2022-10-22T00:06:30.028Z,4.63
2022-10-22T00:08:57.737Z,4.53
2022-10-22T00:11:25.419Z,4.15
2022-10-22T00:13:54.740Z,4.45
2022-10-22T00:16:22.511Z,4.72
2022-10-22T00:18:50.162Z,4.45
2022-10-22T00:21:17.833Z,3.88
2022-10-22T00:23:45.496Z,4.28
2022-10-22T00:26:13.188Z,3.90
2022-10-22T00:28:41.029Z,4.13
2022-10-22T00:31:10.651Z,3.80
2022-10-22T00:33:39.379Z,3.30
2022-10-22T00:36:07.261Z,2.47
2022-10-22T00:38:34.962Z,2.22
2022-10-22T00:41:02.657Z,1.98
2022-10-22T00:43:30.329Z,1.63
2022-10-22T00:45:57.994Z,1.20
2022-10-22T00:48:28.064Z,1.75
2022-10-22T00:50:57.509Z,1.08
2022-10-22T00:53:27.525Z,0.90
2022-10-22T00:55:55.465Z,1.08
2022-10-22T00:58:25.582Z,1.10
2022-10-22T01:00:53.365Z,1.02
2022-10-22T01:03:21.648Z,0.90
2022-10-22T01:05:54.875Z,1.27
2022-10-22T01:08:26.699Z,1.00
2022-10-22T01:10:58.208Z,1.10
2022-10-22T01:13:32.869Z,1.30
2022-10-22T01:16:04.844Z,0.93
2022-10-22T01:18:37.607Z,1.00
2022-10-22T01:21:10.678Z,1.17
2022-10-22T01:23:51.879Z,1.42
2022-10-22T01:28:58.176Z,0.93
2022-10-22T01:31:27.304Z,0.82
2022-10-22T01:33:56.447Z,0.88
2022-10-22T01:36:25.624Z,0.70
2022-10-22T01:38:54.520Z,0.90
2022-10-22T01:41:22.542Z,0.85
2022-10-22T01:43:51.012Z,0.70
2022-10-22T01:46:21.984Z,0.95
2022-10-22T01:48:56.224Z,0.65
2022-10-22T01:51:30.767Z,1.10
2022-10-22T01:54:01.732Z,0.70
2022-10-22T01:56:37.228Z,1.02
2022-10-22T01:59:07.936Z,0.80
2022-10-22T02:01:42.602Z,0.70
2022-10-22T02:04:13.458Z,0.70
2022-10-22T02:06:41.672Z,0.70
2022-10-22T02:09:10.354Z,0.70
2022-10-22T02:11:39.207Z,0.95
2022-10-22T02:14:08.446Z,0.70
2022-10-22T02:16:37.804Z,0.70
2022-10-22T02:19:10.682Z,0.60
2022-10-22T02:21:38.531Z,0.70
2022-10-22T02:24:07.081Z,0.70
2022-10-22T02:26:36.468Z,0.70
2022-10-22T02:29:06.633Z,0.80
2022-10-22T02:31:37.716Z,0.80
2022-10-22T02:34:10.164Z,0.70
2022-10-22T02:36:38.424Z,0.70
2022-10-22T02:39:07.573Z,0.70
2022-10-22T02:41:35.927Z,0.70
2022-10-22T02:44:07.986Z,0.60
2022-10-22T02:46:35.676Z,0.80
2022-10-22T02:49:03.411Z,0.70
2022-10-22T02:51:32.366Z,0.77
2022-10-22T02:54:00.049Z,0.90
2022-10-22T02:56:27.853Z,0.73
2022-10-22T02:58:55.543Z,0.80
2022-10-22T03:01:23.438Z,0.85
2022-10-22T03:03:51.183Z,0.68
2022-10-22T03:06:19.072Z,0.70
2022-10-22T03:08:48.174Z,0.82
2022-10-22T03:11:15.857Z,0.75
2022-10-22T03:13:43.656Z,0.88
2022-10-22T03:16:11.310Z,1.08
2022-10-22T03:18:38.978Z,1.00
2022-10-22T03:21:09.084Z,0.80
2022-10-22T03:23:37.189Z,0.82
2022-10-22T03:26:07.069Z,0.80
2022-10-22T03:28:35.579Z,0.88
2022-10-22T03:31:03.253Z,0.82
2022-10-22T03:33:30.957Z,1.08
2022-10-22T03:35:59.722Z,0.90
2022-10-22T03:38:27.643Z,0.85
2022-10-22T03:40:55.410Z,0.80
2022-10-22T03:43:24.378Z,0.73
2022-10-22T03:45:52.250Z,0.80
2022-10-22T03:48:20.099Z,0.80
2022-10-22T03:50:47.729Z,0.93
2022-10-22T03:53:15.451Z,1.08
2022-10-22T03:55:43.084Z,0.80
2022-10-22T03:58:10.949Z,0.73
2022-10-22T04:00:40.020Z,0.73
2022-10-22T04:03:07.656Z,0.80
2022-10-22T04:05:35.302Z,1.02
2022-10-22T04:08:02.991Z,0.70
2022-10-22T04:10:30.654Z,0.75
2022-10-22T04:12:58.710Z,0.80
2022-10-22T04:15:28.974Z,0.88
2022-10-22T04:17:57.958Z,0.70
2022-10-22T04:20:25.655Z,0.88
2022-10-22T04:22:53.282Z,1.00
2022-10-22T04:25:21.086Z,1.10
2022-10-22T04:27:48.704Z,0.80
2022-10-22T04:30:16.384Z,1.27
2022-10-22T04:32:44.099Z,0.90
2022-10-22T04:35:13.124Z,0.70
2022-10-22T04:37:40.984Z,1.00
2022-10-22T04:40:09.322Z,1.10
2022-10-22T04:42:37.004Z,1.15
2022-10-22T04:45:04.913Z,0.70
2022-10-22T04:47:32.631Z,0.80
2022-10-22T04:50:00.291Z,0.70
2022-10-22T04:52:29.304Z,1.10
2022-10-22T04:54:56.969Z,1.30
2022-10-22T04:57:24.634Z,0.80
2022-10-22T04:59:52.284Z,0.80
2022-10-22T05:02:19.911Z,1.10
2022-10-22T05:04:47.633Z,0.70
2022-10-22T05:07:15.310Z,0.80
2022-10-22T05:09:44.261Z,0.93
2022-10-22T05:12:11.950Z,0.90
2022-10-22T05:14:43.905Z,0.90
2022-10-22T05:17:12.445Z,0.98
2022-10-22T05:19:40.086Z,0.70
2022-10-22T05:22:07.801Z,1.00
2022-10-22T05:24:37.085Z,0.70
2022-10-22T05:27:06.101Z,0.90
2022-10-22T05:29:33.875Z,1.20
2022-10-22T05:32:01.584Z,2.30
2022-10-22T05:34:29.324Z,1.55
2022-10-22T05:36:57.016Z,1.70
2022-10-22T05:39:25.542Z,1.60
2022-10-22T05:41:53.933Z,1.45
2022-10-22T05:44:22.861Z,1.58
2022-10-22T05:46:50.493Z,2.05
2022-10-22T05:49:18.146Z,1.77
2022-10-22T05:51:46.726Z,1.48
2022-10-22T05:54:17.526Z,1.48
2022-10-22T05:56:45.237Z,1.58
2022-10-22T05:59:12.997Z,1.20
2022-10-22T06:01:41.970Z,1.02
2022-10-22T06:04:11.800Z,1.30
2022-10-22T06:06:40.847Z,1.77
2022-10-22T06:09:13.996Z,1.73
2022-10-22T06:11:41.721Z,1.60
2022-10-22T06:14:10.442Z,1.45
2022-10-22T06:16:38.119Z,1.65
2022-10-22T06:19:07.406Z,1.38
2022-10-22T06:21:35.081Z,1.27
2022-10-22T06:24:02.889Z,1.00
2022-10-22T06:26:30.979Z,2.55
2022-10-22T06:28:59.000Z,1.30
2022-10-22T06:31:27.352Z,1.02
2022-10-22T06:33:55.449Z,1.13
2022-10-22T06:36:27.585Z,0.98
2022-10-22T06:38:58.085Z,1.20
2022-10-22T06:41:28.754Z,1.23
2022-10-22T06:43:58.242Z,2.20
2022-10-22T06:46:27.186Z,1.38
2022-10-22T06:48:56.137Z,0.90
2022-10-22T06:51:25.810Z,0.90
2022-10-22T06:53:54.113Z,1.30
2022-10-22T06:56:23.055Z,1.10
2022-10-22T06:58:51.114Z,1.10
2022-10-22T07:01:19.628Z,1.17
2022-10-22T07:03:47.578Z,0.90
2022-10-22T07:06:15.878Z,1.00
2022-10-22T07:08:45.073Z,1.02
2022-10-22T07:11:14.221Z,0.93
2022-10-22T07:13:42.057Z,1.13
2022-10-22T07:16:10.391Z,1.10
2022-10-22T07:18:38.651Z,1.10
2022-10-22T07:21:07.254Z,1.10
2022-10-22T07:23:34.983Z,1.42
2022-10-22T07:26:04.062Z,0.95
2022-10-22T07:28:32.562Z,1.30
2022-10-22T07:31:00.366Z,1.83
2022-10-22T07:33:28.351Z,1.10
2022-10-22T07:35:58.643Z,0.80
2022-10-22T07:38:26.514Z,1.13
2022-10-22T07:40:54.191Z,1.10
2022-10-22T07:43:24.380Z,1.13
2022-10-22T07:45:52.102Z,0.90
2022-10-22T07:48:19.708Z,0.88
2022-10-22T07:50:47.302Z,0.90
2022-10-22T07:53:14.958Z,1.15
2022-10-22T07:55:42.679Z,0.68
2022-10-22T07:58:10.324Z,0.95
2022-10-22T08:00:39.232Z,0.65
2022-10-22T08:03:06.884Z,0.70
2022-10-22T08:05:34.514Z,0.70
2022-10-22T08:08:02.209Z,0.80
2022-10-22T08:10:29.866Z,1.00
2022-10-22T08:12:57.651Z,1.00
2022-10-22T08:15:27.134Z,1.25
2022-10-22T08:17:56.179Z,0.70
2022-10-22T08:20:23.887Z,0.65
2022-10-22T08:22:51.619Z,0.80
2022-10-22T08:25:19.470Z,0.70
2022-10-22T08:27:47.225Z,0.77
2022-10-22T08:30:15.206Z,0.90
2022-10-22T08:32:42.932Z,0.70
2022-10-22T08:35:14.165Z,0.63
2022-10-22T08:37:44.664Z,0.68
2022-10-22T08:40:19.585Z,0.50
2022-10-22T08:43:00.451Z,0.60
2022-10-22T08:45:32.732Z,0.50
2022-10-22T08:48:08.565Z,0.50
2022-10-22T08:50:39.619Z,0.68
2022-10-22T08:53:09.052Z,0.50
2022-10-22T08:55:37.647Z,0.65
2022-10-22T08:58:15.980Z,0.40
2022-10-22T09:00:46.162Z,0.63
2022-10-22T09:03:22.925Z,0.45
2022-10-22T09:05:57.164Z,0.50
2022-10-22T09:08:25.869Z,0.52
2022-10-22T09:10:55.937Z,0.60
2022-10-22T09:13:41.658Z,0.50
2022-10-22T09:16:15.089Z,0.60
2022-10-22T09:18:48.253Z,0.50
2022-10-22T09:21:21.765Z,0.40
2022-10-22T09:23:55.966Z,0.32
2022-10-22T09:26:23.719Z,0.50
2022-10-22T09:28:52.056Z,0.30
2022-10-22T09:31:19.905Z,0.30
2022-10-22T09:33:48.878Z,0.40
2022-10-22T09:36:17.614Z,0.40
2022-10-22T09:38:48.194Z,0.35
2022-10-22T09:41:16.273Z,0.43
2022-10-22T09:43:44.101Z,0.50
2022-10-22T09:46:17.412Z,0.90
2022-10-22T09:48:48.592Z,0.45
2022-10-22T09:51:19.170Z,0.50
2022-10-22T09:53:49.677Z,0.40
2022-10-22T09:56:19.986Z,0.50
2022-10-22T09:58:51.189Z,0.40
2022-10-22T10:01:20.690Z,0.40
2022-10-22T10:03:49.944Z,0.32
2022-10-22T10:06:19.366Z,0.40
2022-10-22T10:08:48.715Z,0.38
2022-10-22T10:11:20.271Z,0.40
2022-10-22T10:13:53.008Z,0.40
2022-10-22T10:16:27.767Z,0.30
2022-10-22T10:19:02.695Z,0.50
2022-10-22T10:21:36.234Z,0.30
2022-10-22T10:24:09.879Z,0.40
2022-10-22T10:26:40.112Z,0.22
2022-10-22T10:29:14.189Z,0.30
2022-10-22T10:31:48.674Z,0.30
2022-10-22T10:34:23.733Z,0.30
2022-10-22T10:36:55.389Z,0.40
2022-10-22T10:39:27.098Z,0.40
2022-10-22T10:42:00.716Z,0.30
2022-10-22T10:44:35.552Z,0.30
2022-10-22T10:47:11.641Z,0.30
2022-10-22T10:49:39.330Z,0.35
2022-10-22T10:52:11.546Z,0.40
2022-10-22T10:54:45.642Z,0.40
2022-10-22T10:57:18.144Z,0.43
2022-10-22T10:59:54.661Z,0.38
2022-10-22T11:02:34.360Z,0.30
2022-10-22T11:05:08.801Z,0.30
2022-10-22T11:07:39.867Z,0.47
2022-10-22T11:10:11.196Z,0.30
2022-10-22T11:12:41.032Z,0.40
2022-10-22T11:15:13.106Z,0.30
2022-10-22T11:17:42.022Z,0.30
2022-10-22T11:20:15.938Z,0.30
2022-10-22T11:23:13.213Z,0.40
2022-10-22T11:25:39.626Z,0.50
2022-10-22T11:28:11.571Z,0.40
2022-10-22T11:30:40.161Z,0.80
2022-10-22T11:33:10.928Z,0.50
2022-10-22T11:35:39.840Z,0.45
2022-10-22T11:38:09.640Z,0.50
2022-10-22T11:40:39.134Z,0.50
2022-10-22T11:43:07.692Z,0.43
2022-10-22T11:45:36.745Z,0.43
2022-10-22T11:48:08.864Z,0.50
2022-10-22T11:50:47.901Z,0.40
2022-10-22T11:53:19.712Z,0.45
2022-10-22T11:55:49.444Z,0.47
2022-10-22T11:58:27.371Z,0.55
2022-10-22T12:00:55.794Z,0.40
2022-10-22T12:03:26.443Z,0.40
2022-10-22T12:06:04.083Z,0.65
2022-10-22T12:08:32.407Z,0.30
2022-10-22T12:11:14.710Z,0.40
2022-10-22T12:13:54.025Z,0.52
2022-10-22T12:16:43.900Z,0.40
2022-10-22T12:19:14.722Z,0.30
2022-10-22T12:21:43.563Z,0.40
2022-10-22T12:24:14.168Z,0.50
2022-10-22T12:26:43.506Z,0.30
2022-10-22T12:29:12.780Z,0.30
2022-10-22T12:31:41.523Z,0.30
2022-10-22T12:34:13.879Z,0.20
2022-10-22T12:36:41.604Z,0.20
2022-10-22T12:39:11.893Z,0.28
2022-10-22T12:41:40.201Z,0.40
2022-10-22T12:44:12.613Z,0.30
2022-10-22T12:46:40.397Z,0.30
2022-10-22T12:49:10.177Z,0.30
2022-10-22T12:51:38.832Z,0.20
2022-10-22T12:54:09.275Z,0.40
2022-10-22T12:56:37.478Z,0.30
2022-10-22T12:59:07.773Z,0.38
2022-10-22T13:01:38.094Z,0.30
2022-10-22T13:04:07.094Z,0.20
2022-10-22T13:06:35.647Z,0.50
2022-10-22T13:09:07.238Z,0.30
2022-10-22T13:11:35.662Z,0.30
2022-10-22T13:14:03.845Z,0.25
2022-10-22T13:16:32.195Z,0.30
2022-10-22T13:19:01.253Z,0.20
2022-10-22T13:21:30.701Z,0.30
2022-10-22T13:23:59.519Z,0.20
2022-10-22T13:26:32.456Z,0.55
2022-10-22T13:29:01.369Z,0.30
2022-10-22T13:31:32.091Z,0.30
2022-10-22T13:34:06.559Z,0.20
2022-10-22T13:36:37.639Z,0.30
2022-10-22T13:39:07.956Z,0.40
2022-10-22T13:44:08.300Z,0.40
2022-10-22T13:46:40.495Z,0.40
2022-10-22T13:49:11.770Z,0.28
2022-10-22T13:51:39.679Z,0.25
2022-10-22T13:54:11.561Z,0.50
2022-10-22T13:56:39.221Z,0.30
2022-10-22T13:59:06.886Z,0.30
2022-10-22T14:01:34.762Z,0.40
2022-10-22T14:04:02.871Z,0.50
2022-10-22T14:06:33.274Z,0.40
2022-10-22T14:09:19.899Z,0.35
2022-10-22T14:11:47.563Z,0.40
2022-10-22T14:14:17.207Z,0.20
2022-10-22T14:16:45.305Z,0.55
2022-10-22T14:19:16.097Z,0.30
2022-10-22T14:21:45.094Z,0.30
2022-10-22T14:24:13.454Z,0.30
2022-10-22T14:26:41.389Z,0.50
2022-10-22T14:29:12.119Z,0.30
2022-10-22T14:34:07.799Z,0.30
2022-10-22T14:36:35.489Z,0.28
2022-10-22T14:39:04.508Z,0.38
2022-10-22T14:41:32.276Z,0.30
2022-10-22T14:44:00.454Z,0.30
2022-10-22T14:46:28.260Z,0.40
2022-10-22T14:48:56.022Z,0.30
2022-10-22T14:51:23.990Z,0.40
2022-10-22T14:54:09.318Z,0.40
2022-10-22T14:56:38.440Z,0.43
2022-10-22T14:59:06.185Z,0.30
2022-10-22T15:01:33.855Z,0.50
2022-10-22T15:04:01.587Z,0.50
2022-10-22T15:06:29.203Z,0.40
2022-10-22T15:08:56.992Z,0.50
2022-10-22T15:11:24.679Z,0.60
2022-10-22T15:13:54.013Z,0.40
2022-10-22T15:16:21.686Z,0.30
2022-10-22T15:18:49.511Z,0.40
2022-10-22T15:21:18.659Z,0.60
2022-10-22T15:23:46.728Z,0.47
2022-10-22T15:26:15.478Z,0.47
2022-10-22T15:28:43.625Z,0.45
2022-10-22T15:31:13.480Z,0.60
2022-10-22T15:33:41.698Z,0.50
2022-10-22T15:36:11.510Z,0.57
2022-10-22T15:38:39.193Z,0.60
2022-10-22T15:41:07.748Z,0.50
2022-10-22T15:43:35.547Z,0.70
2022-10-22T15:46:09.984Z,0.60
2022-10-22T15:48:39.645Z,0.68
2022-10-22T15:51:09.344Z,0.50
2022-10-22T15:53:37.109Z,0.52
2022-10-22T15:56:04.924Z,0.60
2022-10-22T15:58:32.934Z,0.70
2022-10-22T16:01:08.753Z,0.43
2022-10-22T16:03:38.789Z,0.60
2022-10-22T16:06:06.989Z,0.63
2022-10-22T16:08:35.850Z,0.60
2022-10-22T16:11:03.711Z,0.60
2022-10-22T16:13:31.512Z,0.60
2022-10-22T16:15:59.194Z,0.60
2022-10-22T16:18:26.921Z,0.73
2022-10-22T16:20:56.127Z,0.60
2022-10-22T16:23:24.365Z,0.80
2022-10-22T16:25:52.053Z,0.80
2022-10-22T16:28:19.684Z,0.80
2022-10-22T16:30:47.322Z,0.73
2022-10-22T16:33:15.884Z,0.60
2022-10-22T16:35:43.907Z,1.10
2022-10-22T16:38:13.124Z,0.80
2022-10-22T16:40:42.092Z,0.90
2022-10-22T16:43:09.742Z,0.90
2022-10-22T16:45:37.417Z,1.00
2022-10-22T16:48:06.081Z,2.00
2022-10-22T16:50:33.959Z,1.00
2022-10-22T16:53:01.623Z,1.50
2022-10-22T16:55:31.553Z,1.50
2022-10-22T16:57:59.218Z,0.80
2022-10-22T17:00:26.851Z,1.20
2022-10-22T17:02:54.974Z,1.35
2022-10-22T17:05:22.849Z,1.50
2022-10-22T17:07:50.781Z,0.90
2022-10-22T17:10:19.665Z,6.18
2022-10-22T17:12:49.206Z,6.10
2022-10-22T17:15:16.894Z,2.05
2022-10-22T17:17:48.252Z,1.30
2022-10-22T17:20:16.953Z,2.50
2022-10-22T17:22:44.711Z,2.13
2022-10-22T17:25:13.586Z,1.65
2022-10-22T17:27:41.803Z,1.50
2022-10-22T17:30:13.742Z,1.58
2022-10-22T17:32:41.415Z,1.85
2022-10-22T17:35:09.269Z,1.77
2022-10-22T17:37:37.312Z,1.35
2022-10-22T17:40:05.841Z,1.17
2022-10-22T17:42:33.553Z,1.10
2022-10-22T17:45:01.288Z,0.98
2022-10-22T17:47:30.235Z,1.23
2022-10-22T17:49:57.932Z,1.65
2022-10-22T17:52:25.692Z,1.15
2022-10-22T17:54:54.357Z,1.02
2022-10-22T17:57:21.999Z,1.13
2022-10-22T17:59:49.665Z,1.20
2022-10-22T18:02:18.359Z,0.90
2022-10-22T18:04:50.766Z,0.93
2022-10-22T18:07:18.379Z,0.93
2022-10-22T18:09:46.085Z,1.30
2022-10-22T18:12:13.863Z,1.00
2022-10-22T18:14:41.578Z,1.13
2022-10-22T18:17:09.274Z,1.20
2022-10-22T18:19:37.042Z,1.00
2022-10-22T18:22:07.790Z,1.50
2022-10-22T18:24:36.466Z,1.20
2022-10-22T18:27:04.565Z,1.00
2022-10-22T18:29:51.073Z,1.05
2022-10-22T18:32:18.685Z,1.15
2022-10-22T18:34:46.329Z,1.13
2022-10-22T18:37:15.301Z,1.00
2022-10-22T18:40:01.641Z,1.40
2022-10-22T18:42:32.750Z,1.00
2022-10-22T18:45:02.216Z,1.20
2022-10-22T18:47:29.850Z,1.00
2022-10-22T18:49:57.655Z,1.38
2022-10-22T18:52:26.598Z,1.10
2022-10-22T18:54:54.347Z,1.10
2022-10-22T18:57:22.015Z,1.10
2022-10-22T18:59:50.687Z,1.02
2022-10-22T19:02:18.679Z,1.08
2022-10-22T19:04:46.560Z,0.90
2022-10-22T19:07:14.258Z,0.95
2022-10-22T19:09:43.409Z,1.00
2022-10-22T19:12:14.871Z,1.10
2022-10-22T19:14:42.829Z,1.30
2022-10-22T19:17:10.483Z,1.00
2022-10-22T19:19:38.157Z,1.00
2022-10-22T19:22:05.807Z,1.30
2022-10-22T19:24:33.595Z,1.13
2022-10-22T19:27:02.954Z,1.27
2022-10-22T19:29:30.634Z,1.20
2022-10-22T19:31:58.605Z,1.20
2022-10-22T19:34:26.302Z,1.00
2022-10-22T19:36:54.284Z,1.00
2022-10-22T19:39:22.000Z,1.20
2022-10-22T19:41:49.713Z,1.60
2022-10-22T19:44:19.741Z,1.60
2022-10-22T19:46:47.574Z,1.33
2022-10-22T19:49:17.721Z,1.52
2022-10-22T19:51:48.147Z,1.40
2022-10-22T19:54:18.471Z,1.45
2022-10-22T19:56:46.927Z,1.20
2022-10-22T19:59:14.929Z,1.30
2022-10-22T20:01:44.900Z,1.38
2022-10-22T20:04:15.452Z,1.35
2022-10-22T20:06:44.175Z,1.20
2022-10-22T20:09:11.921Z,1.30
2022-10-22T20:11:40.108Z,1.00
2022-10-22T20:14:07.891Z,1.25
2022-10-22T20:16:36.942Z,1.40
2022-10-22T20:19:06.677Z,1.15
2022-10-22T20:21:34.837Z,1.25
2022-10-22T20:24:02.651Z,1.52
2022-10-22T20:26:49.959Z,1.30
2022-10-22T20:29:18.926Z,1.80
2022-10-22T20:31:47.189Z,1.27
2022-10-22T20:34:16.420Z,1.30
2022-10-22T20:36:44.089Z,1.30
2022-10-22T20:39:13.087Z,1.20
2022-10-22T20:41:41.320Z,1.48
2022-10-22T20:44:10.710Z,1.10
2022-10-22T20:46:38.334Z,1.13
2022-10-22T20:49:07.921Z,1.30
2022-10-22T20:51:37.441Z,1.20
2022-10-22T20:54:05.618Z,1.20
2022-10-22T20:56:33.381Z,1.13
2022-10-22T20:59:05.393Z,1.15
2022-10-22T21:01:33.914Z,1.20
2022-10-22T21:04:01.552Z,1.10
2022-10-22T21:06:29.942Z,1.00
2022-10-22T21:08:59.015Z,1.00
2022-10-22T21:11:26.729Z,1.02
2022-10-22T21:13:54.368Z,1.08
2022-10-22T21:16:22.214Z,1.08
2022-10-22T21:18:50.019Z,1.08
2022-10-22T21:21:18.973Z,1.20
2022-10-22T21:23:46.697Z,1.38
2022-10-22T21:26:15.653Z,1.13
2022-10-22T21:28:43.319Z,1.30
2022-10-22T21:31:14.187Z,1.20
2022-10-22T21:33:41.862Z,1.27
2022-10-22T21:36:09.911Z,1.00
2022-10-22T21:38:38.207Z,1.00
2022-10-22T21:41:06.237Z,1.15
2022-10-22T21:43:35.165Z,1.00
2022-10-22T21:46:07.738Z,1.00
2022-10-22T21:48:36.589Z,1.10
2022-10-22T21:51:06.975Z,0.98
2022-10-22T21:53:34.865Z,0.80
2022-10-22T21:56:02.550Z,1.10
2022-10-22T21:58:30.490Z,0.85
2022-10-22T22:01:00.558Z,1.00
2022-10-22T22:03:28.571Z,1.10
2022-10-22T22:05:58.786Z,1.02
2022-10-22T22:08:26.575Z,1.30
2022-10-22T22:10:54.630Z,0.98
2022-10-22T22:13:24.862Z,1.30
2022-10-22T22:15:53.150Z,1.45
2022-10-22T22:18:22.045Z,1.17
2022-10-22T22:20:49.717Z,1.20
2022-10-22T22:23:17.336Z,1.10
2022-10-22T22:25:45.992Z,1.52
2022-10-22T22:28:13.625Z,1.13
2022-10-22T22:30:41.334Z,1.20
2022-10-22T22:33:08.938Z,1.60
2022-10-22T22:38:10.559Z,1.42
2022-10-22T22:40:39.173Z,1.42
2022-10-22T22:43:06.807Z,1.08
2022-10-22T22:45:35.517Z,1.30
2022-10-22T22:48:03.246Z,1.40
2022-10-22T22:50:31.189Z,1.50
2022-10-22T22:53:00.132Z,1.30
2022-10-22T22:55:27.789Z,1.20
2022-10-22T22:57:55.441Z,0.95
2022-10-22T23:00:23.142Z,1.00
2022-10-22T23:02:54.390Z,1.23
2022-10-22T23:05:22.081Z,1.10
2022-10-22T23:07:49.724Z,1.10
2022-10-22T23:10:18.704Z,1.25
2022-10-22T23:12:46.326Z,1.25
2022-10-22T23:15:14.013Z,1.10
2022-10-22T23:17:41.634Z,1.37
2022-10-22T23:20:09.678Z,1.30
2022-10-22T23:22:37.406Z,1.30
2022-10-22T23:25:08.577Z,1.20
2022-10-22T23:27:37.616Z,1.30
2022-10-22T23:30:05.474Z,1.30
2022-10-22T23:32:33.127Z,1.40
2022-10-22T23:35:00.779Z,1.30
2022-10-22T23:37:28.487Z,1.30
2022-10-22T23:39:56.176Z,0.90
2022-10-22T23:42:23.791Z,1.27
2022-10-22T23:44:52.740Z,0.90
2022-10-22T23:47:20.385Z,1.00
2022-10-22T23:49:48.099Z,0.93
2022-10-22T23:52:15.769Z,1.15
2022-10-22T23:54:43.429Z,1.00
2022-10-22T23:57:11.054Z,1.35
2022-10-22T23:59:38.702Z,1.40
